createdAt,value
2023-04-28T00:02:16.788Z,6.65
2023-04-28T00:05:11.468Z,7.40
2023-04-28T00:08:02.422Z,6.40
2023-04-28T00:10:51.832Z,5.75
2023-04-28T00:14:17.845Z,6.47
2023-04-28T00:17:03.824Z,5.50
2023-04-28T00:23:10.435Z,4.95
2023-04-28T00:26:18.220Z,4.25
2023-04-28T00:29:26.737Z,3.97
2023-04-28T00:32:41.082Z,4.35
2023-04-28T00:38:43.096Z,3.10
2023-04-28T00:41:28.398Z,3.05
2023-04-28T00:44:14.277Z,3.50
2023-04-28T00:47:00.308Z,3.10
2023-04-28T00:49:47.633Z,2.60
2023-04-28T00:52:33.206Z,2.10
2023-04-28T00:55:18.867Z,2.20
2023-04-28T00:58:05.993Z,2.05
2023-04-28T01:00:51.742Z,1.90
2023-04-28T01:03:39.729Z,2.22
2023-04-28T01:06:25.659Z,2.40
2023-04-28T01:09:11.396Z,2.40
2023-04-28T01:11:56.624Z,3.00
2023-04-28T01:14:42.664Z,2.95
2023-04-28T01:17:28.296Z,4.00
2023-04-28T01:20:14.854Z,4.00
2023-04-28T01:23:00.412Z,4.60
2023-04-28T01:25:46.230Z,4.93
2023-04-28T01:28:31.713Z,4.30
2023-04-28T01:31:17.448Z,5.45
2023-04-28T01:34:02.975Z,6.35
2023-04-28T01:36:48.715Z,5.35
2023-04-28T01:39:35.115Z,6.55
2023-04-28T01:42:20.988Z,6.43
2023-04-28T01:45:06.477Z,6.80
2023-04-28T01:47:52.112Z,8.07
2023-04-28T01:50:37.619Z,7.90
2023-04-28T01:53:23.150Z,8.00
2023-04-28T01:56:08.989Z,8.38
2023-04-28T01:58:54.164Z,8.20
2023-04-28T02:01:39.773Z,7.93
2023-04-28T02:04:25.431Z,8.73
2023-04-28T02:07:11.256Z,10.88
2023-04-28T02:09:56.875Z,9.93
2023-04-28T02:12:42.749Z,10.25
2023-04-28T02:15:28.468Z,11.00
2023-04-28T02:18:14.289Z,8.98
2023-04-28T02:21:09.747Z,10.05
2023-04-28T02:23:55.047Z,10.32
2023-04-28T02:26:40.902Z,10.35
2023-04-28T02:29:27.894Z,9.98
2023-04-28T02:32:13.534Z,10.02
2023-04-28T02:34:59.186Z,10.77
2023-04-28T02:37:44.633Z,10.55
2023-04-28T02:40:30.111Z,9.85
2023-04-28T02:43:15.706Z,11.85
2023-04-28T02:46:02.519Z,11.30
2023-04-28T02:48:48.038Z,12.52
2023-04-28T02:51:33.695Z,13.82
2023-04-28T02:54:27.598Z,9.82
2023-04-28T02:57:13.056Z,11.75
2023-04-28T02:59:58.570Z,11.95
2023-04-28T03:02:44.335Z,11.15
2023-04-28T03:05:29.964Z,11.27
2023-04-28T03:08:15.109Z,10.32
2023-04-28T03:11:00.640Z,8.07
2023-04-28T03:13:45.895Z,9.07
2023-04-28T03:16:31.576Z,8.68
2023-04-28T03:19:17.229Z,8.18
2023-04-28T03:22:02.718Z,8.90
2023-04-28T03:24:48.286Z,7.93
2023-04-28T03:27:33.981Z,8.00
2023-04-28T03:30:19.860Z,7.70
2023-04-28T03:33:05.433Z,7.68
2023-04-28T03:35:51.368Z,8.13
2023-04-28T03:38:36.605Z,8.20
2023-04-28T03:41:22.180Z,8.30
2023-04-28T03:44:07.795Z,9.20
2023-04-28T03:46:53.696Z,8.02
2023-04-28T03:49:38.902Z,8.82
2023-04-28T03:52:24.680Z,7.38
2023-04-28T03:55:10.239Z,8.52
2023-04-28T03:57:55.520Z,8.32
2023-04-28T04:00:41.085Z,6.00
2023-04-28T04:03:27.250Z,7.05
2023-04-28T04:06:13.416Z,5.82
2023-04-28T04:08:58.801Z,4.95
2023-04-28T04:11:44.478Z,3.65
2023-04-28T04:14:29.844Z,3.55
2023-04-28T04:17:15.931Z,2.60
2023-04-28T04:20:01.329Z,2.30
2023-04-28T04:22:46.931Z,1.55
2023-04-28T04:25:32.693Z,1.80
2023-04-28T04:28:18.207Z,1.80
2023-04-28T04:31:04.091Z,1.30
2023-04-28T04:33:49.641Z,1.10
2023-04-28T04:36:35.033Z,1.17
2023-04-28T04:39:20.654Z,1.15
2023-04-28T04:42:22.660Z,1.40
2023-04-28T04:45:10.310Z,1.15
2023-04-28T04:47:55.655Z,1.55
2023-04-28T04:50:42.520Z,1.00
2023-04-28T04:53:28.020Z,0.85
2023-04-28T04:56:13.573Z,1.38
2023-04-28T04:58:59.145Z,1.20
2023-04-28T05:01:44.885Z,0.95
2023-04-28T05:04:30.392Z,1.38
2023-04-28T05:07:15.979Z,1.13
2023-04-28T05:10:01.853Z,1.10
2023-04-28T05:12:48.996Z,1.00
2023-04-28T05:15:35.226Z,1.10
2023-04-28T05:18:20.754Z,1.10
2023-04-28T05:21:06.780Z,1.40
2023-04-28T05:23:53.767Z,1.33
2023-04-28T05:26:39.352Z,1.05
2023-04-28T05:29:24.570Z,1.15
2023-04-28T05:32:10.044Z,1.35
2023-04-28T05:34:55.725Z,1.13
2023-04-28T05:37:43.562Z,1.20
2023-04-28T05:40:29.365Z,1.00
2023-04-28T05:43:15.105Z,1.10
2023-04-28T05:46:01.520Z,1.13
2023-04-28T05:48:47.157Z,1.25
2023-04-28T05:51:33.740Z,1.38
2023-04-28T05:54:19.593Z,1.23
2023-04-28T05:57:05.354Z,0.77
2023-04-28T05:59:50.921Z,0.90
2023-04-28T06:02:36.527Z,0.90
2023-04-28T06:05:23.462Z,0.80
2023-04-28T06:08:09.021Z,0.65
2023-04-28T06:10:54.594Z,0.88
2023-04-28T06:13:40.579Z,0.77
2023-04-28T06:16:26.248Z,0.70
2023-04-28T06:19:12.039Z,0.60
2023-04-28T06:21:57.983Z,0.45
2023-04-28T06:24:44.098Z,0.40
2023-04-28T06:27:32.775Z,0.90
2023-04-28T06:30:20.258Z,0.30
2023-04-28T06:33:05.580Z,0.50
2023-04-28T06:35:52.992Z,0.40
2023-04-28T06:38:38.793Z,0.30
2023-04-28T06:41:24.546Z,0.32
2023-04-28T06:44:10.935Z,0.30
2023-04-28T06:46:56.929Z,0.38
2023-04-28T06:49:44.330Z,0.30
2023-04-28T06:52:38.524Z,0.20
2023-04-28T06:55:26.878Z,0.30
2023-04-28T06:58:12.877Z,0.50
2023-04-28T07:00:58.171Z,0.50
2023-04-28T07:03:43.913Z,0.40
2023-04-28T07:06:31.474Z,0.40
2023-04-28T07:09:17.524Z,0.63
2023-04-28T07:12:04.353Z,0.43
2023-04-28T07:14:50.970Z,0.55
2023-04-28T07:17:36.924Z,0.40
2023-04-28T07:20:22.888Z,0.70
2023-04-28T07:23:08.412Z,0.60
2023-04-28T07:25:54.013Z,0.70
2023-04-28T07:28:39.514Z,0.77
2023-04-28T07:31:26.154Z,0.68
2023-04-28T07:34:11.871Z,0.93
2023-04-28T07:36:58.253Z,0.85
2023-04-28T07:39:43.857Z,1.30
2023-04-28T07:42:29.157Z,1.08
2023-04-28T07:45:15.880Z,1.17
2023-04-28T07:48:01.531Z,0.90
2023-04-28T07:50:47.182Z,1.10
2023-04-28T07:53:32.488Z,0.70
2023-04-28T07:56:18.483Z,0.85
2023-04-28T07:59:03.827Z,0.68
2023-04-28T08:01:49.363Z,0.50
2023-04-28T08:04:39.628Z,0.73
2023-04-28T08:07:26.221Z,0.60
2023-04-28T08:10:11.994Z,0.70
2023-04-28T08:12:57.401Z,0.38
2023-04-28T08:15:43.256Z,0.68
2023-04-28T08:18:29.396Z,0.50
2023-04-28T08:21:15.073Z,0.60
2023-04-28T08:24:01.821Z,0.43
2023-04-28T08:26:47.853Z,0.52
2023-04-28T08:29:33.969Z,0.30
2023-04-28T08:32:19.562Z,0.40
2023-04-28T08:35:05.952Z,0.43
2023-04-28T08:38:22.647Z,0.40
2023-04-28T08:41:09.799Z,0.40
2023-04-28T08:43:55.183Z,0.35
2023-04-28T08:46:44.831Z,0.25
2023-04-28T08:49:36.186Z,0.40
2023-04-28T08:52:22.112Z,0.38
2023-04-28T08:55:17.033Z,0.20
2023-04-28T08:58:03.330Z,0.50
2023-04-28T09:00:54.628Z,0.30
2023-04-28T09:03:41.254Z,0.32
2023-04-28T09:06:28.491Z,0.25
2023-04-28T09:09:23.270Z,0.20
2023-04-28T09:12:09.235Z,0.20
2023-04-28T09:14:59.316Z,0.20
2023-04-28T09:17:52.198Z,0.30
2023-04-28T09:20:38.179Z,0.20
2023-04-28T09:23:23.466Z,0.40
2023-04-28T09:26:08.801Z,0.40
2023-04-28T09:29:13.409Z,0.20
2023-04-28T09:32:16.817Z,0.20
2023-04-28T09:35:04.795Z,0.30
2023-04-28T09:38:02.728Z,0.22
2023-04-28T09:41:03.280Z,0.40
2023-04-28T09:43:50.614Z,0.80
2023-04-28T09:46:36.267Z,0.50
2023-04-28T09:49:21.877Z,0.38
2023-04-28T09:52:14.656Z,0.40
2023-04-28T09:55:02.847Z,0.40
2023-04-28T09:57:51.856Z,0.50
2023-04-28T10:00:42.465Z,0.30
2023-04-28T10:03:32.258Z,0.20
2023-04-28T10:06:19.318Z,0.40
2023-04-28T10:09:26.519Z,0.50
2023-04-28T10:12:13.009Z,0.40
2023-04-28T10:15:02.954Z,0.38
2023-04-28T10:17:53.698Z,0.40
2023-04-28T10:20:44.607Z,0.40
2023-04-28T10:23:59.597Z,0.40
2023-04-28T10:27:05.408Z,0.32
2023-04-28T10:29:50.564Z,0.20
2023-04-28T10:32:36.463Z,0.20
2023-04-28T10:35:23.477Z,1.02
2023-04-28T10:38:18.226Z,0.90
2023-04-28T10:41:04.674Z,0.32
2023-04-28T10:43:51.237Z,0.28
2023-04-28T10:47:07.017Z,0.20
2023-04-28T10:50:07.465Z,0.80
2023-04-28T10:52:53.570Z,0.30
2023-04-28T10:55:40.456Z,0.52
2023-04-28T10:58:28.704Z,0.47
2023-04-28T11:01:26.190Z,0.40
2023-04-28T11:04:13.376Z,0.40
2023-04-28T11:07:16.377Z,0.32
2023-04-28T11:10:05.457Z,0.60
2023-04-28T11:13:39.662Z,0.40
2023-04-28T11:16:27.298Z,0.63
2023-04-28T11:19:16.521Z,0.63
2023-04-28T11:22:11.977Z,0.52
2023-04-28T11:24:59.225Z,0.57
2023-04-28T11:27:45.190Z,0.47
2023-04-28T11:30:31.354Z,0.38
2023-04-28T11:33:17.828Z,0.63
2023-04-28T11:36:03.728Z,0.63
2023-04-28T11:38:49.678Z,0.60
2023-04-28T11:41:36.626Z,0.50
2023-04-28T11:44:25.190Z,0.40
2023-04-28T11:47:11.033Z,0.32
2023-04-28T11:49:56.938Z,0.50
2023-04-28T11:52:51.028Z,0.45
2023-04-28T11:55:39.302Z,0.40
2023-04-28T11:58:25.240Z,0.73
2023-04-28T12:01:12.068Z,0.55
2023-04-28T12:03:57.816Z,0.50
2023-04-28T12:06:44.124Z,0.80
2023-04-28T12:09:29.936Z,0.75
2023-04-28T12:12:40.193Z,0.65
2023-04-28T12:15:43.181Z,0.70
2023-04-28T12:18:29.280Z,0.60
2023-04-28T12:21:22.110Z,0.57
2023-04-28T12:24:21.440Z,0.80
2023-04-28T12:27:24.813Z,0.98
2023-04-28T12:30:27.777Z,0.82
2023-04-28T12:33:27.537Z,0.90
2023-04-28T12:36:13.420Z,0.90
2023-04-28T12:38:58.819Z,0.63
2023-04-28T12:41:44.696Z,1.00
2023-04-28T12:44:37.089Z,0.90
2023-04-28T12:47:23.772Z,1.08
2023-04-28T12:50:10.212Z,1.00
2023-04-28T12:56:40.263Z,0.93
2023-04-28T12:59:43.744Z,0.75
2023-04-28T13:02:50.138Z,1.33
2023-04-28T13:05:38.379Z,0.90
2023-04-28T13:08:24.065Z,0.82
2023-04-28T13:11:21.797Z,1.05
2023-04-28T13:14:09.013Z,1.00
2023-04-28T13:16:54.463Z,0.80
2023-04-28T13:19:41.042Z,0.95
2023-04-28T13:22:26.651Z,0.88
2023-04-28T13:25:12.090Z,0.93
2023-04-28T13:27:57.779Z,1.00
2023-04-28T13:30:43.081Z,1.05
2023-04-28T13:33:31.365Z,1.00
2023-04-28T13:36:17.303Z,0.80
2023-04-28T13:39:03.364Z,0.80
2023-04-28T13:41:49.505Z,1.00
2023-04-28T13:44:35.080Z,1.10
2023-04-28T13:47:20.793Z,0.80
2023-04-28T13:50:06.847Z,1.45
2023-04-28T13:52:52.864Z,0.70
2023-04-28T13:55:38.840Z,1.08
2023-04-28T13:58:25.349Z,1.10
2023-04-28T14:01:10.838Z,1.10
2023-04-28T14:03:56.834Z,1.10
2023-04-28T14:06:42.832Z,0.85
2023-04-28T14:09:28.397Z,0.80
2023-04-28T14:12:15.357Z,1.10
2023-04-28T14:15:00.775Z,0.85
2023-04-28T14:17:46.668Z,1.00
2023-04-28T14:20:32.814Z,0.70
2023-04-28T14:23:18.657Z,0.95
2023-04-28T14:26:04.258Z,0.50
2023-04-28T14:28:49.645Z,0.57
2023-04-28T14:31:35.411Z,0.70
2023-04-28T14:34:20.892Z,0.82
2023-04-28T14:37:06.748Z,0.60
2023-04-28T14:39:52.851Z,0.60
2023-04-28T14:42:38.215Z,0.70
2023-04-28T14:45:24.524Z,0.77
2023-04-28T14:48:11.145Z,0.40
2023-04-28T14:50:57.547Z,0.50
2023-04-28T14:53:43.221Z,0.60
2023-04-28T14:56:29.049Z,0.60
2023-04-28T14:59:15.018Z,0.40
2023-04-28T15:02:00.318Z,0.50
2023-04-28T15:04:46.448Z,0.68
2023-04-28T15:07:32.766Z,0.80
2023-04-28T15:10:18.724Z,0.80
2023-04-28T15:13:04.502Z,0.93
2023-04-28T15:15:51.640Z,0.60
2023-04-28T15:18:37.572Z,0.68
2023-04-28T15:21:23.586Z,0.80
2023-04-28T15:24:09.115Z,0.88
2023-04-28T15:26:54.517Z,0.70
2023-04-28T15:29:40.698Z,0.85
2023-04-28T15:32:27.324Z,0.70
2023-04-28T15:35:19.147Z,1.25
2023-04-28T15:38:04.526Z,1.20
2023-04-28T15:40:53.011Z,0.90
2023-04-28T15:43:40.197Z,0.75
2023-04-28T15:46:25.777Z,0.70
2023-04-28T15:49:12.175Z,0.60
2023-04-28T15:51:58.279Z,0.73
2023-04-28T15:54:44.469Z,0.70
2023-04-28T15:57:29.910Z,0.70
2023-04-28T16:00:16.531Z,0.75
2023-04-28T16:03:02.440Z,0.98
2023-04-28T16:05:48.157Z,1.25
2023-04-28T16:08:33.446Z,1.40
2023-04-28T16:11:20.481Z,1.30
2023-04-28T16:14:06.409Z,1.17
2023-04-28T16:16:52.520Z,1.30
2023-04-28T16:19:38.316Z,1.10
2023-04-28T16:22:24.046Z,1.60
2023-04-28T16:25:10.551Z,1.20
2023-04-28T16:27:56.235Z,0.88
2023-04-28T16:30:43.663Z,1.08
2023-04-28T16:33:29.568Z,1.23
2023-04-28T16:36:15.957Z,1.40
2023-04-28T16:39:01.413Z,1.00
2023-04-28T16:41:47.340Z,1.23
2023-04-28T16:44:33.064Z,0.82
2023-04-28T16:47:18.610Z,0.70
2023-04-28T16:50:04.481Z,1.40
2023-04-28T16:52:50.375Z,0.98
2023-04-28T16:55:39.244Z,1.35
2023-04-28T16:58:25.132Z,0.90
2023-04-28T17:01:10.700Z,1.33
2023-04-28T17:03:56.626Z,1.00
2023-04-28T17:06:42.273Z,1.15
2023-04-28T17:09:28.079Z,1.20
2023-04-28T17:12:13.555Z,1.20
2023-04-28T17:14:58.927Z,1.50
2023-04-28T17:17:49.800Z,1.70
2023-04-28T17:20:35.670Z,2.08
2023-04-28T17:23:21.849Z,1.77
2023-04-28T17:26:07.491Z,1.40
2023-04-28T17:28:53.460Z,1.63
2023-04-28T17:31:39.606Z,1.63
2023-04-28T17:34:25.168Z,1.58
2023-04-28T17:37:10.557Z,1.50
2023-04-28T17:39:55.927Z,1.50
2023-04-28T17:42:42.984Z,2.15
2023-04-28T17:45:28.692Z,2.22
2023-04-28T17:48:14.664Z,2.40
2023-04-28T17:51:00.228Z,2.50
2023-04-28T17:53:48.686Z,2.25
2023-04-28T17:56:36.672Z,2.60
2023-04-28T17:59:22.342Z,2.65
2023-04-28T18:02:11.587Z,3.17
2023-04-28T18:04:57.199Z,2.80
2023-04-28T18:07:43.167Z,2.88
2023-04-28T18:10:29.632Z,3.78
2023-04-28T18:13:15.461Z,3.70
2023-04-28T18:16:01.386Z,3.22
2023-04-28T18:18:48.377Z,3.08
2023-04-28T18:21:34.081Z,3.85
2023-04-28T18:24:19.685Z,3.95
2023-04-28T18:27:05.021Z,3.63
2023-04-28T18:29:50.722Z,3.70
2023-04-28T18:32:36.345Z,3.70
2023-04-28T18:35:21.705Z,4.78
2023-04-28T18:38:07.310Z,5.32
2023-04-28T18:40:53.011Z,4.68
2023-04-28T18:43:38.498Z,5.25
2023-04-28T18:46:29.383Z,5.85
2023-04-28T18:49:15.349Z,5.80
2023-04-28T18:52:03.592Z,6.60
2023-04-28T18:54:49.488Z,7.03
2023-04-28T18:57:35.069Z,6.65
2023-04-28T19:00:20.873Z,6.75
2023-04-28T19:03:06.493Z,7.60
2023-04-28T19:05:56.528Z,7.40
2023-04-28T19:08:44.817Z,9.45
2023-04-28T19:11:30.831Z,9.32
2023-04-28T19:14:16.520Z,9.70
2023-04-28T19:17:02.173Z,10.70
2023-04-28T19:19:48.375Z,9.88
2023-04-28T19:22:40.267Z,10.63
2023-04-28T19:25:27.136Z,10.75
2023-04-28T19:28:20.416Z,10.82
2023-04-28T19:31:06.563Z,12.18
2023-04-28T19:33:52.302Z,12.02
2023-04-28T19:37:10.070Z,11.50
2023-04-28T19:39:57.464Z,12.05
2023-04-28T19:42:44.587Z,11.70
2023-04-28T19:45:30.314Z,11.95
2023-04-28T19:48:16.150Z,10.65
2023-04-28T19:51:01.548Z,10.23
2023-04-28T19:53:48.821Z,10.40
2023-04-28T19:56:34.952Z,10.60
2023-04-28T19:59:20.963Z,11.05
2023-04-28T20:02:08.499Z,11.18
2023-04-28T20:04:56.308Z,10.80
2023-04-28T20:07:42.604Z,12.73
2023-04-28T20:10:28.405Z,13.00
2023-04-28T20:13:15.540Z,13.07
2023-04-28T20:16:01.729Z,13.40
2023-04-28T20:18:47.718Z,13.18
2023-04-28T20:21:35.077Z,13.18
2023-04-28T20:24:21.237Z,14.75
2023-04-28T20:27:07.462Z,13.98
2023-04-28T20:29:53.758Z,13.93
2023-04-28T20:32:39.846Z,14.52
2023-04-28T20:35:25.563Z,16.10
2023-04-28T20:38:12.130Z,14.68
2023-04-28T20:41:01.063Z,14.98
2023-04-28T20:43:47.017Z,14.95
2023-04-28T20:46:33.385Z,16.08
2023-04-28T20:49:20.307Z,14.90
2023-04-28T20:52:08.700Z,15.43
2023-04-28T20:54:55.010Z,14.93
2023-04-28T20:57:41.112Z,14.68
2023-04-28T21:00:26.904Z,16.13
2023-04-28T21:03:18.176Z,15.18
2023-04-28T21:06:04.026Z,15.35
2023-04-28T21:08:49.959Z,15.88
2023-04-28T21:11:35.257Z,16.65
2023-04-28T21:14:21.858Z,15.10
2023-04-28T21:17:07.527Z,15.30
2023-04-28T21:19:55.566Z,14.18
2023-04-28T21:22:41.381Z,13.95
2023-04-28T21:25:27.401Z,13.00
2023-04-28T21:28:12.792Z,13.18
2023-04-28T21:30:58.673Z,11.73
2023-04-28T21:33:44.431Z,11.73
2023-04-28T21:36:30.905Z,12.18
2023-04-28T21:39:16.437Z,11.43
2023-04-28T21:42:04.912Z,11.70
2023-04-28T21:44:50.686Z,12.02
2023-04-28T21:47:36.621Z,11.00
2023-04-28T21:50:22.684Z,12.05
2023-04-28T21:53:08.197Z,11.85
2023-04-28T21:55:53.630Z,11.63
2023-04-28T21:58:39.332Z,11.98
2023-04-28T22:01:25.065Z,11.15
2023-04-28T22:04:11.515Z,12.20
2023-04-28T22:06:58.319Z,12.60
2023-04-28T22:09:44.187Z,12.75
2023-04-28T22:12:30.163Z,12.23
2023-04-28T22:15:16.092Z,13.13
2023-04-28T22:18:02.015Z,14.55
2023-04-28T22:20:50.121Z,14.55
2023-04-28T22:23:35.746Z,14.10
2023-04-28T22:26:21.833Z,13.95
2023-04-28T22:29:11.903Z,13.85
2023-04-28T22:31:58.863Z,15.27
2023-04-28T22:34:44.381Z,15.45
2023-04-28T22:37:30.318Z,15.45
2023-04-28T22:40:16.050Z,15.45
2023-04-28T22:43:03.094Z,15.60
2023-04-28T22:45:48.769Z,16.77
2023-04-28T22:48:36.448Z,15.32
2023-04-28T22:51:22.284Z,15.13
2023-04-28T22:54:08.600Z,15.98
2023-04-28T22:56:54.774Z,15.38
2023-04-28T22:59:40.265Z,15.45
2023-04-28T23:02:26.269Z,15.82
2023-04-28T23:05:12.143Z,15.57
2023-04-28T23:07:58.181Z,16.52
2023-04-28T23:10:43.874Z,16.10
2023-04-28T23:13:29.322Z,16.88
2023-04-28T23:16:14.989Z,17.17
2023-04-28T23:19:00.399Z,16.73
2023-04-28T23:21:46.306Z,15.52
2023-04-28T23:24:31.961Z,17.83
2023-04-28T23:27:39.903Z,16.52
2023-04-28T23:33:45.974Z,18.13
2023-04-28T23:36:35.679Z,18.13
2023-04-28T23:39:31.680Z,18.15
2023-04-28T23:42:19.912Z,17.52
2023-04-28T23:45:13.881Z,19.52
2023-04-28T23:51:47.308Z,18.58
2023-04-28T23:54:33.309Z,18.67
2023-04-28T23:57:58.515Z,19.60
